sensor_id;sensor_type;location;lat;lon;timestamp;P1;durP1;ratioP1;P2;durP2;ratioP2
76833;SDS011;65793;42.678;23.332;2022-12-26T00:01:30;29.90;;;20.00;;
76833;SDS011;65793;42.678;23.332;2022-12-26T00:04:38;34.95;;;22.58;;
76833;SDS011;65793;42.678;23.332;2022-12-26T00:07:48;30.45;;;22.45;;
76833;SDS011;65793;42.678;23.332;2022-12-26T00:10:53;30.98;;;20.90;;
76833;SDS011;65793;42.678;23.332;2022-12-26T00:14:01;28.23;;;19.58;;
76833;SDS011;65793;42.678;23.332;2022-12-26T00:17:09;27.33;;;18.92;;
76833;SDS011;65793;42.678;23.332;2022-12-26T00:20:20;32.38;;;21.02;;
76833;SDS011;65793;42.678;23.332;2022-12-26T00:23:24;37.38;;;22.73;;
76833;SDS011;65793;42.678;23.332;2022-12-26T00:26:30;29.33;;;19.08;;
76833;SDS011;65793;42.678;23.332;2022-12-26T00:29:37;45.40;;;25.88;;
76833;SDS011;65793;42.678;23.332;2022-12-26T00:32:46;41.90;;;26.65;;
76833;SDS011;65793;42.678;23.332;2022-12-26T00:35:59;48.72;;;24.30;;
76833;SDS011;65793;42.678;23.332;2022-12-26T00:39:04;38.55;;;22.92;;
76833;SDS011;65793;42.678;23.332;2022-12-26T00:42:06;37.78;;;22.08;;
76833;SDS011;65793;42.678;23.332;2022-12-26T00:45:11;36.88;;;25.45;;
76833;SDS011;65793;42.678;23.332;2022-12-26T00:48:25;42.80;;;26.23;;
76833;SDS011;65793;42.678;23.332;2022-12-26T00:51:35;43.85;;;25.70;;
76833;SDS011;65793;42.678;23.332;2022-12-26T00:54:40;41.00;;;23.52;;
76833;SDS011;65793;42.678;23.332;2022-12-26T00:57:43;42.00;;;23.63;;
76833;SDS011;65793;42.678;23.332;2022-12-26T01:00:50;36.55;;;22.50;;
76833;SDS011;65793;42.678;23.332;2022-12-26T01:03:54;59.55;;;30.80;;
76833;SDS011;65793;42.678;23.332;2022-12-26T01:07:09;48.60;;;27.50;;
76833;SDS011;65793;42.678;23.332;2022-12-26T01:10:25;51.15;;;29.52;;
76833;SDS011;65793;42.678;23.332;2022-12-26T01:13:33;50.15;;;27.55;;
76833;SDS011;65793;42.678;23.332;2022-12-26T01:16:50;41.28;;;26.15;;
76833;SDS011;65793;42.678;23.332;2022-12-26T01:19:54;42.30;;;22.85;;
76833;SDS011;65793;42.678;23.332;2022-12-26T01:23:03;52.83;;;27.52;;
76833;SDS011;65793;42.678;23.332;2022-12-26T01:26:07;54.85;;;30.08;;
76833;SDS011;65793;42.678;23.332;2022-12-26T01:29:16;52.00;;;28.70;;
76833;SDS011;65793;42.678;23.332;2022-12-26T01:32:19;51.35;;;30.38;;
76833;SDS011;65793;42.678;23.332;2022-12-26T01:35:22;45.55;;;24.95;;
76833;SDS011;65793;42.678;23.332;2022-12-26T01:38:42;40.08;;;23.95;;
76833;SDS011;65793;42.678;23.332;2022-12-26T01:41:47;40.10;;;22.25;;
76833;SDS011;65793;42.678;23.332;2022-12-26T01:48:11;39.15;;;25.10;;
76833;SDS011;65793;42.678;23.332;2022-12-26T01:51:20;84.30;;;46.78;;
76833;SDS011;65793;42.678;23.332;2022-12-26T01:54:28;66.93;;;35.53;;
76833;SDS011;65793;42.678;23.332;2022-12-26T02:00:45;56.03;;;30.85;;
76833;SDS011;65793;42.678;23.332;2022-12-26T02:03:50;59.78;;;32.88;;
76833;SDS011;65793;42.678;23.332;2022-12-26T02:07:12;73.93;;;36.67;;
76833;SDS011;65793;42.678;23.332;2022-12-26T02:10:20;66.78;;;35.00;;
76833;SDS011;65793;42.678;23.332;2022-12-26T02:13:29;60.65;;;34.00;;
76833;SDS011;65793;42.678;23.332;2022-12-26T02:16:38;50.75;;;31.05;;
76833;SDS011;65793;42.678;23.332;2022-12-26T02:19:46;42.92;;;27.65;;
76833;SDS011;65793;42.678;23.332;2022-12-26T02:23:11;54.67;;;31.23;;
76833;SDS011;65793;42.678;23.332;2022-12-26T02:34:05;57.63;;;32.38;;
76833;SDS011;65793;42.678;23.332;2022-12-26T02:37:51;52.65;;;30.35;;
76833;SDS011;65793;42.678;23.332;2022-12-26T02:44:28;52.75;;;28.70;;
76833;SDS011;65793;42.678;23.332;2022-12-26T02:47:57;40.65;;;28.10;;
76833;SDS011;65793;42.678;23.332;2022-12-26T02:51:16;51.33;;;32.00;;
76833;SDS011;65793;42.678;23.332;2022-12-26T02:54:45;49.47;;;30.42;;
76833;SDS011;65793;42.678;23.332;2022-12-26T02:58:18;45.42;;;27.83;;
76833;SDS011;65793;42.678;23.332;2022-12-26T03:01:43;44.90;;;27.02;;
76833;SDS011;65793;42.678;23.332;2022-12-26T03:05:12;44.80;;;27.90;;
76833;SDS011;65793;42.678;23.332;2022-12-26T03:08:37;45.15;;;26.25;;
76833;SDS011;65793;42.678;23.332;2022-12-26T03:12:03;50.92;;;30.05;;
76833;SDS011;65793;42.678;23.332;2022-12-26T03:15:35;40.45;;;26.67;;
76833;SDS011;65793;42.678;23.332;2022-12-26T03:19:02;47.25;;;27.00;;
76833;SDS011;65793;42.678;23.332;2022-12-26T03:22:16;48.35;;;24.90;;
76833;SDS011;65793;42.678;23.332;2022-12-26T03:25:35;45.28;;;28.35;;
76833;SDS011;65793;42.678;23.332;2022-12-26T03:29:04;32.10;;;20.83;;
76833;SDS011;65793;42.678;23.332;2022-12-26T03:32:26;40.95;;;24.20;;
76833;SDS011;65793;42.678;23.332;2022-12-26T03:35:55;44.67;;;24.08;;
76833;SDS011;65793;42.678;23.332;2022-12-26T03:39:03;39.30;;;24.98;;
76833;SDS011;65793;42.678;23.332;2022-12-26T03:42:21;43.25;;;23.73;;
76833;SDS011;65793;42.678;23.332;2022-12-26T03:45:56;45.83;;;24.65;;
76833;SDS011;65793;42.678;23.332;2022-12-26T03:49:29;32.87;;;20.17;;
76833;SDS011;65793;42.678;23.332;2022-12-26T03:52:52;32.65;;;20.25;;
76833;SDS011;65793;42.678;23.332;2022-12-26T03:56:29;32.55;;;18.95;;
76833;SDS011;65793;42.678;23.332;2022-12-26T04:00:01;28.33;;;18.75;;
76833;SDS011;65793;42.678;23.332;2022-12-26T04:03:31;28.75;;;14.60;;
76833;SDS011;65793;42.678;23.332;2022-12-26T04:06:54;24.70;;;15.98;;
76833;SDS011;65793;42.678;23.332;2022-12-26T04:10:22;23.75;;;14.48;;
76833;SDS011;65793;42.678;23.332;2022-12-26T04:13:58;21.42;;;14.18;;
76833;SDS011;65793;42.678;23.332;2022-12-26T04:17:26;20.42;;;14.82;;
76833;SDS011;65793;42.678;23.332;2022-12-26T04:20:55;23.27;;;15.73;;
76833;SDS011;65793;42.678;23.332;2022-12-26T04:24:14;28.40;;;14.93;;
76833;SDS011;65793;42.678;23.332;2022-12-26T04:27:40;34.17;;;18.63;;
76833;SDS011;65793;42.678;23.332;2022-12-26T04:31:07;28.55;;;20.17;;
76833;SDS011;65793;42.678;23.332;2022-12-26T04:34:33;33.40;;;19.13;;
76833;SDS011;65793;42.678;23.332;2022-12-26T04:38:00;29.40;;;18.13;;
76833;SDS011;65793;42.678;23.332;2022-12-26T04:41:22;25.88;;;16.75;;
76833;SDS011;65793;42.678;23.332;2022-12-26T04:44:47;28.33;;;16.23;;
76833;SDS011;65793;42.678;23.332;2022-12-26T04:48:04;25.20;;;16.20;;
76833;SDS011;65793;42.678;23.332;2022-12-26T04:51:31;22.37;;;14.20;;
76833;SDS011;65793;42.678;23.332;2022-12-26T04:54:34;28.75;;;19.80;;
76833;SDS011;65793;42.678;23.332;2022-12-26T04:57:43;36.30;;;18.33;;
76833;SDS011;65793;42.678;23.332;2022-12-26T05:01:07;27.88;;;15.30;;
76833;SDS011;65793;42.678;23.332;2022-12-26T05:04:33;27.15;;;16.17;;
76833;SDS011;65793;42.678;23.332;2022-12-26T05:07:59;22.98;;;15.95;;
76833;SDS011;65793;42.678;23.332;2022-12-26T05:11:23;29.02;;;16.83;;
76833;SDS011;65793;42.678;23.332;2022-12-26T05:14:27;26.95;;;16.70;;
76833;SDS011;65793;42.678;23.332;2022-12-26T05:17:48;26.00;;;17.02;;
76833;SDS011;65793;42.678;23.332;2022-12-26T05:21:10;28.13;;;17.13;;
76833;SDS011;65793;42.678;23.332;2022-12-26T05:24:32;29.83;;;19.17;;
76833;SDS011;65793;42.678;23.332;2022-12-26T05:28:00;43.78;;;23.65;;
76833;SDS011;65793;42.678;23.332;2022-12-26T05:31:21;40.67;;;23.63;;
76833;SDS011;65793;42.678;23.332;2022-12-26T05:34:28;48.22;;;26.88;;
76833;SDS011;65793;42.678;23.332;2022-12-26T05:37:33;54.78;;;29.45;;
76833;SDS011;65793;42.678;23.332;2022-12-26T05:40:40;48.72;;;28.30;;
76833;SDS011;65793;42.678;23.332;2022-12-26T05:43:44;51.22;;;26.30;;
76833;SDS011;65793;42.678;23.332;2022-12-26T05:46:48;42.40;;;25.02;;
76833;SDS011;65793;42.678;23.332;2022-12-26T05:49:52;47.85;;;27.30;;
76833;SDS011;65793;42.678;23.332;2022-12-26T05:52:58;48.03;;;25.77;;
76833;SDS011;65793;42.678;23.332;2022-12-26T05:56:04;41.10;;;24.23;;
76833;SDS011;65793;42.678;23.332;2022-12-26T05:59:24;48.55;;;28.58;;
76833;SDS011;65793;42.678;23.332;2022-12-26T06:02:31;44.70;;;28.73;;
76833;SDS011;65793;42.678;23.332;2022-12-26T06:05:49;36.70;;;23.75;;
76833;SDS011;65793;42.678;23.332;2022-12-26T06:12:20;37.83;;;23.65;;
76833;SDS011;65793;42.678;23.332;2022-12-26T06:15:22;39.47;;;24.63;;
76833;SDS011;65793;42.678;23.332;2022-12-26T06:18:27;36.78;;;22.05;;
76833;SDS011;65793;42.678;23.332;2022-12-26T06:21:54;40.15;;;23.63;;
76833;SDS011;65793;42.678;23.332;2022-12-26T06:25:10;37.42;;;22.33;;
76833;SDS011;65793;42.678;23.332;2022-12-26T06:28:41;40.33;;;24.20;;
76833;SDS011;65793;42.678;23.332;2022-12-26T06:31:50;35.72;;;23.02;;
76833;SDS011;65793;42.678;23.332;2022-12-26T06:35:03;42.00;;;24.80;;
76833;SDS011;65793;42.678;23.332;2022-12-26T06:38:09;37.72;;;24.67;;
76833;SDS011;65793;42.678;23.332;2022-12-26T06:41:14;31.73;;;20.73;;
76833;SDS011;65793;42.678;23.332;2022-12-26T06:44:23;32.35;;;22.00;;
76833;SDS011;65793;42.678;23.332;2022-12-26T06:47:27;38.22;;;23.00;;
76833;SDS011;65793;42.678;23.332;2022-12-26T06:53:34;41.60;;;25.58;;
76833;SDS011;65793;42.678;23.332;2022-12-26T06:56:45;37.38;;;25.45;;
76833;SDS011;65793;42.678;23.332;2022-12-26T06:59:53;39.13;;;26.13;;
76833;SDS011;65793;42.678;23.332;2022-12-26T07:02:57;44.63;;;27.27;;
76833;SDS011;65793;42.678;23.332;2022-12-26T07:06:12;37.38;;;22.90;;
76833;SDS011;65793;42.678;23.332;2022-12-26T07:09:21;40.47;;;25.00;;
76833;SDS011;65793;42.678;23.332;2022-12-26T07:12:43;40.75;;;24.10;;
76833;SDS011;65793;42.678;23.332;2022-12-26T07:15:47;39.72;;;24.75;;
76833;SDS011;65793;42.678;23.332;2022-12-26T07:18:52;35.15;;;23.02;;
76833;SDS011;65793;42.678;23.332;2022-12-26T07:21:58;33.70;;;23.25;;
76833;SDS011;65793;42.678;23.332;2022-12-26T07:25:05;33.22;;;20.15;;
76833;SDS011;65793;42.678;23.332;2022-12-26T07:28:13;36.08;;;22.10;;
76833;SDS011;65793;42.678;23.332;2022-12-26T07:42:07;33.55;;;20.85;;
76833;SDS011;65793;42.678;23.332;2022-12-26T07:45:09;26.75;;;17.60;;
76833;SDS011;65793;42.678;23.332;2022-12-26T07:48:11;27.92;;;18.48;;
76833;SDS011;65793;42.678;23.332;2022-12-26T07:51:14;26.13;;;18.10;;
76833;SDS011;65793;42.678;23.332;2022-12-26T07:54:17;29.45;;;19.77;;
76833;SDS011;65793;42.678;23.332;2022-12-26T07:57:21;34.03;;;20.77;;
76833;SDS011;65793;42.678;23.332;2022-12-26T08:00:24;29.38;;;20.40;;
76833;SDS011;65793;42.678;23.332;2022-12-26T08:03:26;25.83;;;18.35;;
76833;SDS011;65793;42.678;23.332;2022-12-26T08:06:28;25.98;;;19.30;;
76833;SDS011;65793;42.678;23.332;2022-12-26T08:09:31;26.77;;;19.77;;
76833;SDS011;65793;42.678;23.332;2022-12-26T08:12:35;29.92;;;21.48;;
76833;SDS011;65793;42.678;23.332;2022-12-26T08:15:37;25.27;;;19.63;;
76833;SDS011;65793;42.678;23.332;2022-12-26T08:18:41;25.77;;;20.20;;
76833;SDS011;65793;42.678;23.332;2022-12-26T08:21:43;36.75;;;23.77;;
76833;SDS011;65793;42.678;23.332;2022-12-26T08:24:46;28.40;;;21.40;;
76833;SDS011;65793;42.678;23.332;2022-12-26T08:27:53;28.85;;;20.75;;
76833;SDS011;65793;42.678;23.332;2022-12-26T08:30:56;31.30;;;20.90;;
76833;SDS011;65793;42.678;23.332;2022-12-26T08:34:03;27.58;;;20.95;;
76833;SDS011;65793;42.678;23.332;2022-12-26T08:37:15;23.60;;;18.77;;
76833;SDS011;65793;42.678;23.332;2022-12-26T08:40:17;26.63;;;21.00;;
76833;SDS011;65793;42.678;23.332;2022-12-26T08:43:21;27.35;;;19.58;;
76833;SDS011;65793;42.678;23.332;2022-12-26T08:46:24;22.25;;;17.88;;
76833;SDS011;65793;42.678;23.332;2022-12-26T08:49:28;40.20;;;33.15;;
76833;SDS011;65793;42.678;23.332;2022-12-26T08:52:30;46.13;;;35.20;;
76833;SDS011;65793;42.678;23.332;2022-12-26T08:55:35;55.30;;;40.58;;
76833;SDS011;65793;42.678;23.332;2022-12-26T08:58:54;58.15;;;42.65;;
76833;SDS011;65793;42.678;23.332;2022-12-26T09:01:57;58.75;;;45.33;;
76833;SDS011;65793;42.678;23.332;2022-12-26T09:04:59;51.83;;;41.60;;
76833;SDS011;65793;42.678;23.332;2022-12-26T09:08:06;54.30;;;41.47;;
76833;SDS011;65793;42.678;23.332;2022-12-26T09:11:11;52.30;;;41.40;;
76833;SDS011;65793;42.678;23.332;2022-12-26T09:14:17;51.40;;;41.95;;
76833;SDS011;65793;42.678;23.332;2022-12-26T09:17:40;46.50;;;38.78;;
76833;SDS011;65793;42.678;23.332;2022-12-26T09:20:44;45.70;;;35.60;;
76833;SDS011;65793;42.678;23.332;2022-12-26T09:23:47;48.92;;;35.00;;
76833;SDS011;65793;42.678;23.332;2022-12-26T09:26:56;39.85;;;31.10;;
76833;SDS011;65793;42.678;23.332;2022-12-26T09:30:14;41.08;;;31.00;;
76833;SDS011;65793;42.678;23.332;2022-12-26T09:33:17;35.22;;;29.00;;
76833;SDS011;65793;42.678;23.332;2022-12-26T09:36:20;36.25;;;26.02;;
76833;SDS011;65793;42.678;23.332;2022-12-26T09:39:24;36.67;;;26.95;;
76833;SDS011;65793;42.678;23.332;2022-12-26T09:42:28;36.17;;;26.55;;
76833;SDS011;65793;42.678;23.332;2022-12-26T09:45:44;33.33;;;24.73;;
76833;SDS011;65793;42.678;23.332;2022-12-26T09:48:56;39.28;;;28.10;;
76833;SDS011;65793;42.678;23.332;2022-12-26T09:52:04;30.98;;;25.60;;
76833;SDS011;65793;42.678;23.332;2022-12-26T09:55:43;33.78;;;26.13;;
76833;SDS011;65793;42.678;23.332;2022-12-26T09:58:54;30.88;;;27.58;;
76833;SDS011;65793;42.678;23.332;2022-12-26T10:05:18;34.47;;;25.13;;
76833;SDS011;65793;42.678;23.332;2022-12-26T10:08:23;32.53;;;24.00;;
76833;SDS011;65793;42.678;23.332;2022-12-26T10:11:48;31.17;;;24.10;;
76833;SDS011;65793;42.678;23.332;2022-12-26T10:18:38;33.50;;;23.40;;
76833;SDS011;65793;42.678;23.332;2022-12-26T10:21:55;29.83;;;22.80;;
76833;SDS011;65793;42.678;23.332;2022-12-26T10:25:11;26.98;;;22.73;;
76833;SDS011;65793;42.678;23.332;2022-12-26T10:28:21;29.35;;;22.60;;
76833;SDS011;65793;42.678;23.332;2022-12-26T10:31:31;22.88;;;20.52;;
76833;SDS011;65793;42.678;23.332;2022-12-26T10:34:40;24.88;;;19.83;;
76833;SDS011;65793;42.678;23.332;2022-12-26T10:37:44;19.58;;;17.45;;
76833;SDS011;65793;42.678;23.332;2022-12-26T10:40:50;20.77;;;16.23;;
76833;SDS011;65793;42.678;23.332;2022-12-26T10:44:02;18.15;;;13.50;;
76833;SDS011;65793;42.678;23.332;2022-12-26T10:47:15;12.55;;;11.15;;
76833;SDS011;65793;42.678;23.332;2022-12-26T10:50:26;17.80;;;13.18;;
76833;SDS011;65793;42.678;23.332;2022-12-26T10:53:39;15.68;;;11.00;;
76833;SDS011;65793;42.678;23.332;2022-12-26T10:56:45;15.80;;;12.80;;
76833;SDS011;65793;42.678;23.332;2022-12-26T10:59:51;17.33;;;13.02;;
76833;SDS011;65793;42.678;23.332;2022-12-26T11:03:03;18.20;;;13.50;;
76833;SDS011;65793;42.678;23.332;2022-12-26T11:06:09;19.55;;;13.30;;
76833;SDS011;65793;42.678;23.332;2022-12-26T11:09:22;16.38;;;11.75;;
76833;SDS011;65793;42.678;23.332;2022-12-26T11:12:36;13.15;;;10.95;;
76833;SDS011;65793;42.678;23.332;2022-12-26T11:15:45;16.38;;;13.55;;
76833;SDS011;65793;42.678;23.332;2022-12-26T11:18:50;16.70;;;12.60;;
76833;SDS011;65793;42.678;23.332;2022-12-26T11:21:54;16.02;;;13.30;;
76833;SDS011;65793;42.678;23.332;2022-12-26T11:25:18;15.23;;;13.60;;
76833;SDS011;65793;42.678;23.332;2022-12-26T11:28:23;13.48;;;12.07;;
76833;SDS011;65793;42.678;23.332;2022-12-26T11:31:36;10.38;;;9.27;;
76833;SDS011;65793;42.678;23.332;2022-12-26T11:34:42;15.23;;;12.43;;
76833;SDS011;65793;42.678;23.332;2022-12-26T11:37:51;14.55;;;11.85;;
76833;SDS011;65793;42.678;23.332;2022-12-26T11:40:55;16.50;;;12.65;;
76833;SDS011;65793;42.678;23.332;2022-12-26T11:44:17;16.92;;;10.75;;
76833;SDS011;65793;42.678;23.332;2022-12-26T11:47:22;15.68;;;10.85;;
76833;SDS011;65793;42.678;23.332;2022-12-26T11:50:28;17.35;;;13.20;;
76833;SDS011;65793;42.678;23.332;2022-12-26T11:53:33;22.80;;;13.95;;
76833;SDS011;65793;42.678;23.332;2022-12-26T11:56:36;14.50;;;12.68;;
76833;SDS011;65793;42.678;23.332;2022-12-26T11:59:39;15.03;;;11.53;;
76833;SDS011;65793;42.678;23.332;2022-12-26T12:02:41;32.83;;;15.75;;
76833;SDS011;65793;42.678;23.332;2022-12-26T12:05:45;18.58;;;12.10;;
76833;SDS011;65793;42.678;23.332;2022-12-26T12:08:58;15.82;;;12.90;;
76833;SDS011;65793;42.678;23.332;2022-12-26T12:12:09;18.83;;;13.00;;
76833;SDS011;65793;42.678;23.332;2022-12-26T12:15:21;17.33;;;12.23;;
76833;SDS011;65793;42.678;23.332;2022-12-26T12:18:31;17.98;;;13.48;;
76833;SDS011;65793;42.678;23.332;2022-12-26T12:21:44;25.27;;;14.77;;
76833;SDS011;65793;42.678;23.332;2022-12-26T12:25:02;16.42;;;11.13;;
76833;SDS011;65793;42.678;23.332;2022-12-26T12:28:34;16.08;;;12.52;;
76833;SDS011;65793;42.678;23.332;2022-12-26T12:31:48;10.82;;;7.85;;
76833;SDS011;65793;42.678;23.332;2022-12-26T12:35:11;13.13;;;9.27;;
76833;SDS011;65793;42.678;23.332;2022-12-26T12:38:28;9.25;;;7.20;;
76833;SDS011;65793;42.678;23.332;2022-12-26T12:41:41;12.63;;;9.00;;
76833;SDS011;65793;42.678;23.332;2022-12-26T12:45:16;11.07;;;7.93;;
76833;SDS011;65793;42.678;23.332;2022-12-26T12:51:56;11.68;;;7.95;;
76833;SDS011;65793;42.678;23.332;2022-12-26T12:55:20;13.88;;;8.75;;
76833;SDS011;65793;42.678;23.332;2022-12-26T12:58:44;15.88;;;9.27;;
76833;SDS011;65793;42.678;23.332;2022-12-26T13:01:57;10.65;;;9.05;;
76833;SDS011;65793;42.678;23.332;2022-12-26T13:05:07;10.65;;;8.50;;
76833;SDS011;65793;42.678;23.332;2022-12-26T13:08:21;9.85;;;7.68;;
76833;SDS011;65793;42.678;23.332;2022-12-26T13:11:27;10.38;;;7.40;;
76833;SDS011;65793;42.678;23.332;2022-12-26T13:14:36;9.35;;;7.72;;
76833;SDS011;65793;42.678;23.332;2022-12-26T13:17:43;11.45;;;6.90;;
76833;SDS011;65793;42.678;23.332;2022-12-26T13:20:51;9.13;;;7.30;;
76833;SDS011;65793;42.678;23.332;2022-12-26T13:23:58;14.38;;;9.15;;
76833;SDS011;65793;42.678;23.332;2022-12-26T13:27:23;9.13;;;7.15;;
76833;SDS011;65793;42.678;23.332;2022-12-26T13:30:29;11.57;;;6.82;;
76833;SDS011;65793;42.678;23.332;2022-12-26T13:33:32;7.43;;;6.00;;
76833;SDS011;65793;42.678;23.332;2022-12-26T13:36:40;8.45;;;6.15;;
76833;SDS011;65793;42.678;23.332;2022-12-26T13:39:44;9.15;;;6.13;;
76833;SDS011;65793;42.678;23.332;2022-12-26T13:42:48;8.93;;;6.57;;
76833;SDS011;65793;42.678;23.332;2022-12-26T13:49:40;8.98;;;5.40;;
76833;SDS011;65793;42.678;23.332;2022-12-26T13:52:42;7.43;;;4.75;;
76833;SDS011;65793;42.678;23.332;2022-12-26T13:55:46;7.47;;;4.70;;
76833;SDS011;65793;42.678;23.332;2022-12-26T13:58:49;6.75;;;4.72;;
76833;SDS011;65793;42.678;23.332;2022-12-26T14:02:00;12.75;;;5.40;;
76833;SDS011;65793;42.678;23.332;2022-12-26T14:05:20;5.68;;;4.40;;
76833;SDS011;65793;42.678;23.332;2022-12-26T14:08:29;4.47;;;4.07;;
76833;SDS011;65793;42.678;23.332;2022-12-26T14:11:45;5.70;;;4.15;;
76833;SDS011;65793;42.678;23.332;2022-12-26T14:15:02;8.55;;;5.68;;
76833;SDS011;65793;42.678;23.332;2022-12-26T14:18:24;6.55;;;4.63;;
76833;SDS011;65793;42.678;23.332;2022-12-26T14:21:42;8.13;;;4.68;;
76833;SDS011;65793;42.678;23.332;2022-12-26T14:28:03;8.73;;;4.65;;
76833;SDS011;65793;42.678;23.332;2022-12-26T14:31:15;7.40;;;5.35;;
76833;SDS011;65793;42.678;23.332;2022-12-26T14:34:26;8.48;;;5.85;;
76833;SDS011;65793;42.678;23.332;2022-12-26T14:37:47;7.10;;;5.60;;
76833;SDS011;65793;42.678;23.332;2022-12-26T14:41:00;10.90;;;5.20;;
76833;SDS011;65793;42.678;23.332;2022-12-26T14:44:09;9.23;;;5.00;;
76833;SDS011;65793;42.678;23.332;2022-12-26T14:47:27;10.70;;;5.47;;
76833;SDS011;65793;42.678;23.332;2022-12-26T14:53:47;7.53;;;5.18;;
76833;SDS011;65793;42.678;23.332;2022-12-26T14:57:45;10.98;;;6.95;;
76833;SDS011;65793;42.678;23.332;2022-12-26T15:00:49;10.40;;;6.65;;
76833;SDS011;65793;42.678;23.332;2022-12-26T15:03:51;8.02;;;6.70;;
76833;SDS011;65793;42.678;23.332;2022-12-26T15:07:10;14.80;;;7.25;;
76833;SDS011;65793;42.678;23.332;2022-12-26T15:10:41;12.52;;;7.35;;
76833;SDS011;65793;42.678;23.332;2022-12-26T15:14:26;14.00;;;8.02;;
76833;SDS011;65793;42.678;23.332;2022-12-26T15:17:48;13.45;;;6.97;;
76833;SDS011;65793;42.678;23.332;2022-12-26T15:28:29;20.08;;;9.95;;
76833;SDS011;65793;42.678;23.332;2022-12-26T15:31:41;23.92;;;11.00;;
76833;SDS011;65793;42.678;23.332;2022-12-26T15:34:55;22.17;;;11.53;;
76833;SDS011;65793;42.678;23.332;2022-12-26T15:38:14;26.60;;;9.70;;
76833;SDS011;65793;42.678;23.332;2022-12-26T15:41:25;21.92;;;8.85;;
76833;SDS011;65793;42.678;23.332;2022-12-26T15:44:37;14.68;;;9.30;;
76833;SDS011;65793;42.678;23.332;2022-12-26T15:47:46;12.02;;;8.60;;
76833;SDS011;65793;42.678;23.332;2022-12-26T15:50:57;16.90;;;12.82;;
76833;SDS011;65793;42.678;23.332;2022-12-26T15:54:08;17.15;;;10.40;;
76833;SDS011;65793;42.678;23.332;2022-12-26T15:57:25;15.45;;;8.18;;
76833;SDS011;65793;42.678;23.332;2022-12-26T16:00:37;19.63;;;8.70;;
76833;SDS011;65793;42.678;23.332;2022-12-26T16:03:49;12.18;;;8.48;;
76833;SDS011;65793;42.678;23.332;2022-12-26T16:07:05;14.48;;;10.68;;
76833;SDS011;65793;42.678;23.332;2022-12-26T16:10:14;15.02;;;9.60;;
76833;SDS011;65793;42.678;23.332;2022-12-26T16:13:31;27.50;;;13.48;;
76833;SDS011;65793;42.678;23.332;2022-12-26T16:16:36;16.05;;;10.68;;
76833;SDS011;65793;42.678;23.332;2022-12-26T16:19:39;24.42;;;12.43;;
76833;SDS011;65793;42.678;23.332;2022-12-26T16:22:43;20.95;;;11.85;;
76833;SDS011;65793;42.678;23.332;2022-12-26T16:25:47;24.13;;;12.00;;
76833;SDS011;65793;42.678;23.332;2022-12-26T16:32:00;19.58;;;10.32;;
76833;SDS011;65793;42.678;23.332;2022-12-26T16:35:06;17.40;;;11.18;;
76833;SDS011;65793;42.678;23.332;2022-12-26T16:38:16;14.98;;;9.45;;
76833;SDS011;65793;42.678;23.332;2022-12-26T16:41:23;22.27;;;10.32;;
76833;SDS011;65793;42.678;23.332;2022-12-26T16:44:34;18.23;;;12.52;;
76833;SDS011;65793;42.678;23.332;2022-12-26T16:47:42;21.67;;;11.38;;
76833;SDS011;65793;42.678;23.332;2022-12-26T16:53:50;20.55;;;11.98;;
76833;SDS011;65793;42.678;23.332;2022-12-26T16:56:56;23.30;;;13.40;;
76833;SDS011;65793;42.678;23.332;2022-12-26T17:00:13;48.28;;;19.05;;
76833;SDS011;65793;42.678;23.332;2022-12-26T17:03:22;24.85;;;17.80;;
76833;SDS011;65793;42.678;23.332;2022-12-26T17:06:29;36.55;;;18.77;;
76833;SDS011;65793;42.678;23.332;2022-12-26T17:09:37;33.60;;;18.52;;
76833;SDS011;65793;42.678;23.332;2022-12-26T17:12:43;26.60;;;17.08;;
76833;SDS011;65793;42.678;23.332;2022-12-26T17:15:50;35.45;;;17.80;;
76833;SDS011;65793;42.678;23.332;2022-12-26T17:19:07;35.75;;;20.98;;
76833;SDS011;65793;42.678;23.332;2022-12-26T17:25:23;30.42;;;16.83;;
76833;SDS011;65793;42.678;23.332;2022-12-26T17:28:27;38.17;;;22.00;;
76833;SDS011;65793;42.678;23.332;2022-12-26T17:31:32;45.35;;;21.60;;
76833;SDS011;65793;42.678;23.332;2022-12-26T17:34:38;39.17;;;19.55;;
76833;SDS011;65793;42.678;23.332;2022-12-26T17:37:41;37.30;;;19.58;;
76833;SDS011;65793;42.678;23.332;2022-12-26T17:40:45;43.25;;;22.50;;
76833;SDS011;65793;42.678;23.332;2022-12-26T17:43:48;43.80;;;23.40;;
76833;SDS011;65793;42.678;23.332;2022-12-26T17:46:58;44.78;;;23.83;;
76833;SDS011;65793;42.678;23.332;2022-12-26T17:50:03;40.15;;;23.05;;
76833;SDS011;65793;42.678;23.332;2022-12-26T17:53:15;50.75;;;27.35;;
76833;SDS011;65793;42.678;23.332;2022-12-26T17:56:24;49.58;;;30.63;;
76833;SDS011;65793;42.678;23.332;2022-12-26T17:59:33;59.65;;;27.25;;
76833;SDS011;65793;42.678;23.332;2022-12-26T18:02:37;74.00;;;26.00;;
76833;SDS011;65793;42.678;23.332;2022-12-26T18:05:40;37.63;;;24.50;;
76833;SDS011;65793;42.678;23.332;2022-12-26T18:08:43;35.83;;;20.13;;
76833;SDS011;65793;42.678;23.332;2022-12-26T18:11:46;44.63;;;26.00;;
76833;SDS011;65793;42.678;23.332;2022-12-26T18:14:48;42.47;;;24.42;;
76833;SDS011;65793;42.678;23.332;2022-12-26T18:17:56;39.03;;;23.13;;
76833;SDS011;65793;42.678;23.332;2022-12-26T18:20:59;41.75;;;25.08;;
76833;SDS011;65793;42.678;23.332;2022-12-26T18:24:03;36.95;;;21.13;;
76833;SDS011;65793;42.678;23.332;2022-12-26T18:27:08;38.75;;;22.88;;
76833;SDS011;65793;42.678;23.332;2022-12-26T18:30:23;32.05;;;21.08;;
76833;SDS011;65793;42.678;23.332;2022-12-26T18:33:28;39.25;;;20.63;;
76833;SDS011;65793;42.678;23.332;2022-12-26T18:36:33;26.17;;;19.65;;
76833;SDS011;65793;42.678;23.332;2022-12-26T18:39:37;27.98;;;17.95;;
76833;SDS011;65793;42.678;23.332;2022-12-26T18:42:44;33.15;;;20.30;;
76833;SDS011;65793;42.678;23.332;2022-12-26T18:45:46;31.13;;;19.52;;
76833;SDS011;65793;42.678;23.332;2022-12-26T18:48:50;31.17;;;20.38;;
76833;SDS011;65793;42.678;23.332;2022-12-26T18:51:55;27.35;;;16.65;;
76833;SDS011;65793;42.678;23.332;2022-12-26T18:54:58;29.63;;;18.10;;
76833;SDS011;65793;42.678;23.332;2022-12-26T18:58:03;31.75;;;18.77;;
76833;SDS011;65793;42.678;23.332;2022-12-26T19:01:15;31.20;;;22.77;;
76833;SDS011;65793;42.678;23.332;2022-12-26T19:04:21;36.08;;;18.80;;
76833;SDS011;65793;42.678;23.332;2022-12-26T19:07:24;35.50;;;21.00;;
76833;SDS011;65793;42.678;23.332;2022-12-26T19:10:33;30.98;;;20.38;;
76833;SDS011;65793;42.678;23.332;2022-12-26T19:13:36;38.47;;;19.50;;
76833;SDS011;65793;42.678;23.332;2022-12-26T19:16:39;33.85;;;22.23;;
76833;SDS011;65793;42.678;23.332;2022-12-26T19:19:43;42.92;;;25.52;;
76833;SDS011;65793;42.678;23.332;2022-12-26T19:22:47;53.30;;;27.73;;
76833;SDS011;65793;42.678;23.332;2022-12-26T19:25:51;33.67;;;24.55;;
76833;SDS011;65793;42.678;23.332;2022-12-26T19:28:54;47.15;;;26.75;;
76833;SDS011;65793;42.678;23.332;2022-12-26T19:31:58;44.95;;;25.85;;
76833;SDS011;65793;42.678;23.332;2022-12-26T19:35:04;41.80;;;24.70;;
76833;SDS011;65793;42.678;23.332;2022-12-26T19:38:08;40.40;;;28.13;;